createdAt,value
2023-08-06T00:00:14.493Z,18.21
2023-08-06T00:02:44.962Z,18.15
2023-08-06T00:05:15.382Z,18.06
2023-08-06T00:07:47.816Z,18.24
2023-08-06T00:10:19.024Z,18.21
2023-08-06T00:12:50.495Z,18.07
2023-08-06T00:15:21.024Z,17.83
2023-08-06T00:17:51.603Z,17.76
2023-08-06T00:20:22.444Z,17.74
2023-08-06T00:22:54.539Z,17.83
2023-08-06T00:25:25.029Z,17.98
2023-08-06T00:27:55.543Z,18.09
2023-08-06T00:30:26.078Z,18.12
2023-08-06T00:32:56.542Z,18.13
2023-08-06T00:35:26.994Z,18.24
2023-08-06T00:37:59.062Z,18.32
2023-08-06T00:40:30.930Z,18.79
2023-08-06T00:43:01.462Z,19.01
2023-08-06T00:45:33.313Z,19.28
2023-08-06T00:48:04.197Z,19.68
2023-08-06T00:50:34.992Z,20.12
2023-08-06T00:53:07.377Z,20.12
2023-08-06T00:55:38.423Z,19.99
2023-08-06T00:58:09.523Z,19.63
2023-08-06T01:00:40.354Z,19.22
2023-08-06T01:03:10.924Z,18.82
2023-08-06T01:05:41.613Z,18.74
2023-08-06T01:08:29.454Z,18.84
2023-08-06T01:11:18.308Z,18.97
2023-08-06T01:13:51.658Z,19.22
2023-08-06T01:16:24.300Z,19.47
2023-08-06T01:18:54.921Z,19.54
2023-08-06T01:21:27.036Z,19.46
2023-08-06T01:23:59.347Z,19.53
2023-08-06T01:26:39.537Z,19.63
2023-08-06T01:29:14.206Z,19.76
2023-08-06T01:31:47.618Z,20.16
2023-08-06T01:34:24.562Z,20.19
2023-08-06T01:36:56.859Z,20.18
2023-08-06T01:39:27.422Z,20.16
2023-08-06T01:41:57.864Z,19.71
2023-08-06T01:44:28.320Z,19.60
2023-08-06T01:46:58.798Z,19.67
2023-08-06T01:49:29.308Z,19.96
2023-08-06T01:52:02.746Z,20.22
2023-08-06T01:54:33.303Z,20.34
2023-08-06T01:57:03.755Z,20.42
2023-08-06T01:59:34.239Z,20.58
2023-08-06T02:02:05.118Z,20.89
2023-08-06T02:04:35.602Z,20.93
2023-08-06T02:07:08.387Z,20.93
2023-08-06T02:09:38.913Z,21.07
2023-08-06T02:12:10.652Z,20.98
2023-08-06T02:14:41.117Z,20.95
2023-08-06T02:17:11.560Z,21.09
2023-08-06T02:19:42.173Z,21.36
2023-08-06T02:22:14.291Z,21.68
2023-08-06T02:24:44.846Z,22.05
2023-08-06T02:27:15.275Z,22.40
2023-08-06T02:29:46.339Z,22.64
2023-08-06T02:32:16.986Z,22.51
2023-08-06T02:34:47.629Z,22.11
2023-08-06T02:37:19.680Z,22.11
2023-08-06T02:39:50.130Z,22.25
2023-08-06T02:42:20.648Z,22.46
2023-08-06T02:44:51.261Z,22.44
2023-08-06T02:47:21.811Z,22.05
2023-08-06T02:49:52.715Z,21.66
2023-08-06T02:52:24.901Z,21.32
2023-08-06T02:54:55.488Z,21.39
2023-08-06T02:57:25.964Z,21.40
2023-08-06T02:59:56.556Z,21.54
2023-08-06T03:02:27.134Z,21.78
2023-08-06T03:04:57.881Z,21.95
2023-08-06T03:07:30.535Z,22.00
2023-08-06T03:10:02.937Z,21.90
2023-08-06T03:12:33.460Z,21.71
2023-08-06T03:15:04.218Z,21.74
2023-08-06T03:17:34.819Z,21.88
2023-08-06T03:20:05.443Z,22.07
2023-08-06T03:22:37.644Z,22.19
2023-08-06T03:25:09.024Z,21.85
2023-08-06T03:27:39.469Z,21.78
2023-08-06T03:30:11.292Z,21.47
2023-08-06T03:32:42.099Z,21.40
2023-08-06T03:35:13.005Z,20.92
2023-08-06T03:37:45.088Z,20.89
2023-08-06T03:40:15.786Z,20.78
2023-08-06T03:42:46.326Z,20.85
2023-08-06T03:45:16.800Z,20.97
2023-08-06T03:47:47.370Z,21.01
2023-08-06T03:50:17.987Z,20.97
2023-08-06T03:52:50.040Z,21.01
2023-08-06T03:55:20.422Z,21.16
2023-08-06T03:57:51.408Z,21.34
2023-08-06T04:00:22.073Z,21.71
2023-08-06T04:02:52.812Z,21.77
2023-08-06T04:05:23.354Z,21.63
2023-08-06T04:07:55.496Z,21.71
2023-08-06T04:10:26.069Z,21.85
2023-08-06T04:12:56.571Z,21.89
2023-08-06T04:15:27.042Z,21.95
2023-08-06T04:17:58.823Z,21.69
2023-08-06T04:20:29.414Z,21.44
2023-08-06T04:23:01.528Z,21.25
2023-08-06T04:25:31.945Z,21.03
2023-08-06T04:28:02.491Z,20.82
2023-08-06T04:30:33.632Z,20.70
2023-08-06T04:33:04.283Z,20.67
2023-08-06T04:35:34.940Z,20.72
2023-08-06T04:38:07.065Z,20.68
2023-08-06T04:40:38.015Z,20.61
2023-08-06T04:43:08.558Z,20.41
2023-08-06T04:45:38.989Z,20.28
2023-08-06T04:48:09.661Z,20.10
2023-08-06T04:50:40.265Z,19.86
2023-08-06T04:53:12.297Z,19.60
2023-08-06T04:55:43.049Z,18.88
2023-08-06T04:58:14.353Z,19.59
2023-08-06T05:00:44.770Z,19.63
2023-08-06T05:03:15.223Z,19.74
2023-08-06T05:05:45.776Z,19.79
2023-08-06T05:08:20.449Z,19.88
2023-08-06T05:10:50.972Z,19.87
2023-08-06T05:13:21.506Z,19.75
2023-08-06T05:15:51.987Z,19.75
2023-08-06T05:18:22.413Z,19.79
2023-08-06T05:20:52.824Z,19.81
2023-08-06T05:23:24.869Z,19.75
2023-08-06T05:25:55.506Z,19.57
2023-08-06T05:28:26.028Z,19.38
2023-08-06T05:30:56.576Z,19.13
2023-08-06T05:33:27.167Z,19.27
2023-08-06T05:35:57.633Z,19.26
2023-08-06T05:38:29.833Z,19.22
2023-08-06T05:41:00.307Z,19.22
2023-08-06T05:43:30.875Z,19.17
2023-08-06T05:46:01.530Z,19.17
2023-08-06T05:48:31.957Z,19.10
2023-08-06T05:51:02.427Z,19.02
2023-08-06T05:53:34.504Z,19.01
2023-08-06T05:56:05.084Z,18.95
2023-08-06T05:58:35.477Z,18.99
2023-08-06T06:01:05.973Z,18.96
2023-08-06T06:03:36.480Z,19.01
2023-08-06T06:06:07.126Z,19.00
2023-08-06T06:08:39.202Z,19.05
2023-08-06T06:11:09.665Z,19.09
2023-08-06T06:13:40.221Z,19.11
2023-08-06T06:16:10.825Z,19.13
2023-08-06T06:18:41.281Z,19.21
2023-08-06T06:21:11.761Z,19.23
2023-08-06T06:23:43.950Z,19.42
2023-08-06T06:26:14.924Z,19.47
2023-08-06T06:28:45.444Z,19.63
2023-08-06T06:31:16.035Z,19.72
2023-08-06T06:33:46.697Z,19.88
2023-08-06T06:36:17.119Z,19.83
2023-08-06T06:38:49.957Z,19.73
2023-08-06T06:41:20.909Z,19.67
2023-08-06T06:43:51.322Z,19.55
2023-08-06T06:46:21.843Z,19.53
2023-08-06T06:48:52.370Z,19.51
2023-08-06T06:51:23.099Z,19.48
2023-08-06T06:53:55.128Z,19.54
2023-08-06T06:56:25.579Z,19.51
2023-08-06T06:58:56.128Z,19.40
2023-08-06T07:01:26.791Z,19.32
2023-08-06T07:03:57.284Z,19.25
2023-08-06T07:06:28.049Z,19.23
2023-08-06T07:09:00.530Z,19.25
2023-08-06T07:11:30.989Z,19.24
2023-08-06T07:14:02.005Z,19.08
2023-08-06T07:16:32.640Z,19.20
2023-08-06T07:19:03.099Z,19.20
2023-08-06T07:21:33.764Z,19.19
2023-08-06T07:24:05.905Z,19.13
2023-08-06T07:26:36.391Z,19.01
2023-08-06T07:29:06.920Z,19.03
2023-08-06T07:31:37.512Z,19.07
2023-08-06T07:34:10.651Z,19.03
2023-08-06T07:36:59.093Z,18.92
2023-08-06T07:39:42.895Z,18.80
2023-08-06T07:42:16.756Z,18.87
2023-08-06T07:44:53.576Z,18.90
2023-08-06T07:47:25.597Z,18.82
2023-08-06T07:49:59.446Z,18.72
2023-08-06T07:52:31.267Z,18.62
2023-08-06T07:55:07.002Z,18.53
2023-08-06T07:57:40.533Z,18.45
2023-08-06T08:00:13.654Z,18.44
2023-08-06T08:02:46.067Z,18.38
2023-08-06T08:05:19.037Z,18.31
2023-08-06T08:07:51.604Z,18.13
2023-08-06T08:10:24.782Z,18.15
2023-08-06T08:12:57.817Z,18.17
2023-08-06T08:15:30.831Z,17.86
2023-08-06T08:18:04.344Z,18.03
2023-08-06T08:20:38.114Z,17.97
2023-08-06T08:23:12.138Z,18.02
2023-08-06T08:25:46.242Z,17.95
2023-08-06T08:28:18.320Z,17.97
2023-08-06T08:30:50.712Z,17.94
2023-08-06T08:33:22.677Z,17.87
2023-08-06T08:35:56.255Z,17.80
2023-08-06T08:38:30.483Z,17.73
2023-08-06T08:41:05.278Z,17.69
2023-08-06T08:43:38.435Z,17.60
2023-08-06T08:46:13.998Z,17.51
2023-08-06T08:48:46.834Z,17.41
2023-08-06T08:51:21.944Z,17.32
2023-08-06T08:53:58.686Z,17.21
2023-08-06T08:56:34.732Z,17.16
2023-08-06T08:59:07.313Z,17.10
2023-08-06T09:01:39.239Z,17.00
2023-08-06T09:04:17.595Z,16.96
2023-08-06T09:06:56.813Z,16.81
2023-08-06T09:09:29.731Z,16.94
2023-08-06T09:12:05.428Z,17.18
2023-08-06T09:14:36.131Z,17.31
2023-08-06T09:17:08.079Z,17.43
2023-08-06T09:19:50.285Z,17.49
2023-08-06T09:22:20.881Z,17.47
2023-08-06T09:24:51.459Z,17.40
2023-08-06T09:27:27.201Z,17.28
2023-08-06T09:29:59.440Z,17.16
2023-08-06T09:32:32.311Z,17.04
2023-08-06T09:35:07.401Z,16.94
2023-08-06T09:37:41.649Z,16.50
2023-08-06T09:40:30.381Z,16.35
2023-08-06T09:43:06.594Z,16.63
2023-08-06T09:45:40.939Z,16.58
2023-08-06T09:48:14.521Z,16.51
2023-08-06T09:50:49.931Z,16.43
2023-08-06T09:53:22.088Z,16.37
2023-08-06T09:55:56.679Z,16.29
2023-08-06T09:58:30.599Z,15.73
2023-08-06T10:01:04.351Z,16.12
2023-08-06T10:03:41.507Z,16.16
2023-08-06T10:06:14.492Z,16.11
2023-08-06T10:08:48.942Z,16.10
2023-08-06T10:11:21.736Z,16.09
2023-08-06T10:13:59.246Z,16.04
2023-08-06T10:16:33.263Z,16.06
2023-08-06T10:19:06.390Z,16.01
2023-08-06T10:21:38.058Z,16.03
2023-08-06T10:24:13.519Z,15.94
2023-08-06T10:26:53.890Z,15.95
2023-08-06T10:29:44.384Z,15.99
2023-08-06T10:32:17.841Z,15.95
2023-08-06T10:35:03.004Z,15.95
2023-08-06T10:37:49.621Z,15.93
2023-08-06T10:40:38.363Z,15.87
2023-08-06T10:43:12.896Z,15.85
2023-08-06T10:45:56.808Z,15.85
2023-08-06T10:51:39.822Z,15.75
2023-08-06T10:54:11.965Z,15.68
2023-08-06T10:56:46.920Z,15.58
2023-08-06T10:59:20.987Z,15.50
2023-08-06T11:01:56.032Z,15.48
2023-08-06T11:04:29.222Z,15.45
2023-08-06T11:07:01.870Z,15.37
2023-08-06T11:09:33.368Z,15.30
2023-08-06T11:12:05.207Z,15.24
2023-08-06T11:14:37.444Z,15.19
2023-08-06T11:17:11.059Z,15.09
2023-08-06T11:19:43.778Z,14.97
2023-08-06T11:22:21.359Z,14.88
2023-08-06T11:24:53.971Z,14.59
2023-08-06T11:27:27.184Z,14.66
2023-08-06T11:30:00.032Z,14.55
2023-08-06T11:32:33.647Z,14.36
2023-08-06T11:35:15.001Z,14.38
2023-08-06T11:37:50.794Z,14.11
2023-08-06T11:40:22.710Z,14.24
2023-08-06T11:42:59.077Z,14.20
2023-08-06T11:45:30.619Z,14.14
2023-08-06T11:48:04.365Z,13.91
2023-08-06T11:50:42.182Z,13.91
2023-08-06T11:53:18.686Z,13.97
2023-08-06T11:55:50.648Z,13.92
2023-08-06T11:58:22.933Z,13.85
2023-08-06T12:00:58.446Z,13.92
2023-08-06T12:03:38.138Z,13.84
2023-08-06T12:06:09.846Z,13.75
2023-08-06T12:08:53.690Z,13.68
2023-08-06T12:11:26.886Z,13.63
2023-08-06T12:14:04.167Z,13.55
2023-08-06T12:16:35.816Z,13.51
2023-08-06T12:19:15.694Z,13.31
2023-08-06T12:21:48.521Z,13.26
2023-08-06T12:24:21.110Z,13.17
2023-08-06T12:26:55.780Z,13.09
2023-08-06T12:29:27.632Z,13.06
2023-08-06T12:32:01.738Z,13.06
2023-08-06T12:34:51.971Z,13.06
2023-08-06T12:37:31.962Z,13.03
2023-08-06T12:40:33.442Z,13.09
2023-08-06T12:43:10.809Z,12.87
2023-08-06T12:45:57.658Z,13.03
2023-08-06T12:48:29.450Z,12.99
2023-08-06T12:51:03.014Z,12.89
2023-08-06T12:53:34.621Z,12.79
2023-08-06T12:56:06.792Z,12.80
2023-08-06T12:58:41.408Z,12.79
2023-08-06T13:01:13.299Z,12.74
2023-08-06T13:03:45.638Z,12.71
2023-08-06T13:06:19.381Z,12.70
2023-08-06T13:08:52.093Z,12.64
2023-08-06T13:11:25.089Z,12.66
2023-08-06T13:13:58.945Z,12.62
2023-08-06T13:16:31.672Z,12.62
2023-08-06T13:19:03.482Z,12.54
2023-08-06T13:21:40.935Z,12.63
2023-08-06T13:24:13.046Z,12.56
2023-08-06T13:26:47.601Z,12.51
2023-08-06T13:29:19.337Z,12.28
2023-08-06T13:31:54.247Z,12.13
2023-08-06T13:34:27.411Z,12.14
2023-08-06T13:37:02.864Z,12.16
2023-08-06T13:39:34.617Z,12.21
2023-08-06T13:42:07.481Z,12.24
2023-08-06T13:44:39.684Z,12.23
2023-08-06T13:47:11.535Z,12.20
2023-08-06T13:49:43.848Z,11.84
2023-08-06T13:52:22.289Z,12.15
2023-08-06T13:54:54.577Z,11.96
2023-08-06T13:57:26.374Z,12.05
2023-08-06T13:59:58.037Z,12.01
2023-08-06T14:02:29.825Z,11.96
2023-08-06T14:05:02.464Z,11.91
2023-08-06T14:07:36.160Z,11.83
2023-08-06T14:10:08.014Z,11.81
2023-08-06T14:12:39.621Z,11.84
2023-08-06T14:15:12.041Z,11.89
2023-08-06T14:17:46.465Z,11.88
2023-08-06T14:20:18.255Z,11.89
2023-08-06T14:22:51.871Z,11.89
2023-08-06T14:25:23.951Z,11.86
2023-08-06T14:27:55.747Z,11.84
2023-08-06T14:30:27.650Z,11.85
2023-08-06T14:33:03.863Z,11.82
2023-08-06T14:35:41.239Z,11.70
2023-08-06T14:38:15.816Z,11.64
2023-08-06T14:40:48.667Z,11.61
2023-08-06T14:43:20.223Z,11.70
2023-08-06T14:45:51.927Z,11.68
2023-08-06T14:48:23.763Z,11.64
2023-08-06T14:50:55.624Z,11.62
2023-08-06T14:53:29.206Z,11.61
2023-08-06T14:56:01.048Z,11.65
2023-08-06T14:58:32.774Z,11.70
2023-08-06T15:01:04.786Z,11.66
2023-08-06T15:03:36.443Z,11.61
2023-08-06T15:06:08.181Z,11.63
2023-08-06T15:08:41.812Z,11.58
2023-08-06T15:11:15.081Z,11.45
2023-08-06T15:13:46.903Z,11.33
2023-08-06T15:16:18.589Z,11.26
2023-08-06T15:18:51.035Z,11.25
2023-08-06T15:21:22.698Z,11.22
2023-08-06T15:23:56.169Z,11.18
2023-08-06T15:26:28.487Z,11.18
2023-08-06T15:29:00.508Z,11.15
2023-08-06T15:31:44.152Z,11.17
2023-08-06T15:34:15.794Z,11.19
2023-08-06T15:36:47.364Z,11.21
2023-08-06T15:39:20.682Z,11.18
2023-08-06T15:41:52.143Z,11.17
2023-08-06T15:44:24.529Z,11.18
2023-08-06T15:46:56.887Z,11.19
2023-08-06T15:49:28.831Z,11.13
2023-08-06T15:52:00.444Z,11.12
2023-08-06T15:54:33.961Z,11.13
2023-08-06T15:57:06.345Z,11.12
2023-08-06T15:59:38.034Z,11.11
2023-08-06T16:02:12.261Z,11.11
2023-08-06T16:04:44.886Z,11.10
2023-08-06T16:07:16.583Z,11.08
2023-08-06T16:09:50.922Z,11.02
2023-08-06T16:12:22.862Z,10.96
2023-08-06T16:14:55.111Z,10.86
2023-08-06T16:17:27.084Z,10.90
2023-08-06T16:19:58.724Z,10.86
2023-08-06T16:22:31.316Z,10.78
2023-08-06T16:25:05.209Z,10.74
2023-08-06T16:27:36.921Z,10.71
2023-08-06T16:30:09.630Z,10.59
2023-08-06T16:32:42.104Z,10.44
2023-08-06T16:35:14.768Z,10.33
2023-08-06T16:37:49.270Z,10.23
2023-08-06T16:40:23.106Z,10.19
2023-08-06T16:50:18.777Z,10.03
2023-08-06T16:52:52.461Z,9.97
2023-08-06T16:58:49.026Z,9.80
2023-08-06T17:01:20.634Z,9.48
2023-08-06T17:03:56.958Z,9.75
2023-08-06T17:06:37.431Z,9.71
2023-08-06T17:09:08.740Z,9.66
2023-08-06T17:11:42.299Z,9.64
2023-08-06T17:14:14.673Z,9.64
2023-08-06T17:16:47.186Z,9.69
2023-08-06T17:19:18.984Z,9.77
2023-08-06T17:21:50.750Z,9.90
2023-08-06T17:24:23.455Z,9.98
2023-08-06T17:27:00.855Z,10.00
2023-08-06T17:29:33.616Z,9.99
2023-08-06T17:32:05.699Z,9.95
2023-08-06T17:34:38.689Z,10.00
2023-08-06T17:37:10.601Z,9.97
2023-08-06T17:39:42.509Z,9.95
2023-08-06T17:42:16.143Z,9.94
2023-08-06T17:44:46.646Z,9.92
2023-08-06T17:47:30.762Z,9.90
2023-08-06T17:50:06.188Z,9.89
2023-08-06T17:52:42.130Z,9.89
2023-08-06T17:55:12.789Z,9.86
2023-08-06T17:57:45.134Z,9.96
2023-08-06T18:00:16.539Z,9.96
2023-08-06T18:02:47.122Z,9.96
2023-08-06T18:05:20.194Z,9.96
2023-08-06T18:07:53.461Z,9.91
2023-08-06T18:10:24.325Z,9.88
2023-08-06T18:12:58.183Z,9.89
2023-08-06T18:15:31.098Z,9.84
2023-08-06T18:18:01.621Z,9.78
2023-08-06T18:20:32.356Z,9.77
2023-08-06T18:23:04.283Z,9.81
2023-08-06T18:25:35.370Z,9.80
2023-08-06T18:28:11.784Z,9.78
2023-08-06T18:30:44.065Z,9.77
2023-08-06T18:33:14.578Z,9.75
2023-08-06T18:35:45.532Z,9.73
2023-08-06T18:38:18.657Z,9.71
2023-08-06T18:40:49.363Z,9.70
2023-08-06T18:43:24.374Z,9.74
2023-08-06T18:45:59.279Z,9.76
2023-08-06T18:48:30.105Z,9.81
2023-08-06T18:51:01.886Z,9.79
2023-08-06T18:53:32.460Z,9.80
2023-08-06T18:56:02.942Z,9.85
2023-08-06T18:58:37.351Z,9.76
2023-08-06T19:01:07.883Z,9.74
2023-08-06T19:03:38.510Z,9.71
2023-08-06T19:06:09.171Z,9.66
2023-08-06T19:08:39.799Z,9.66
2023-08-06T19:11:10.264Z,9.62
2023-08-06T19:13:42.413Z,9.40
2023-08-06T19:16:12.890Z,9.63
2023-08-06T19:18:43.357Z,9.61
2023-08-06T19:21:13.866Z,9.54
2023-08-06T19:23:44.379Z,9.50
2023-08-06T19:26:14.952Z,9.50
2023-08-06T19:28:47.140Z,9.49
2023-08-06T19:31:17.679Z,9.48
2023-08-06T19:33:48.642Z,9.44
2023-08-06T19:36:19.071Z,9.39
2023-08-06T19:38:49.464Z,9.37
2023-08-06T19:41:20.730Z,9.44
2023-08-06T19:43:53.704Z,9.49
2023-08-06T19:46:24.183Z,9.62
2023-08-06T19:48:54.753Z,9.73
2023-08-06T19:51:27.232Z,9.76
2023-08-06T19:53:57.679Z,9.91
2023-08-06T19:56:30.762Z,10.13
2023-08-06T19:59:02.810Z,10.38
2023-08-06T20:01:33.499Z,10.63
2023-08-06T20:04:04.321Z,10.79
2023-08-06T20:06:34.773Z,10.98
2023-08-06T20:09:05.174Z,11.16
2023-08-06T20:11:35.579Z,11.35
2023-08-06T20:14:07.619Z,11.52
2023-08-06T20:16:38.108Z,11.70
2023-08-06T20:19:08.761Z,11.94
2023-08-06T20:21:39.197Z,12.19
2023-08-06T20:24:09.777Z,12.37
2023-08-06T20:26:40.195Z,12.52
2023-08-06T20:29:12.302Z,12.72
2023-08-06T20:31:43.444Z,12.90
2023-08-06T20:34:13.984Z,13.19
2023-08-06T20:36:44.553Z,13.40
2023-08-06T20:39:15.125Z,13.60
2023-08-06T20:41:45.633Z,13.76
2023-08-06T20:44:17.738Z,13.88
2023-08-06T20:46:48.423Z,14.03
2023-08-06T20:49:18.860Z,14.11
2023-08-06T20:51:49.386Z,14.16
2023-08-06T20:54:19.900Z,14.24
2023-08-06T20:56:50.329Z,14.33
2023-08-06T20:59:22.422Z,14.46
2023-08-06T21:01:53.268Z,14.52
2023-08-06T21:04:24.108Z,14.62
2023-08-06T21:06:54.614Z,14.78
2023-08-06T21:09:25.051Z,14.53
2023-08-06T21:11:55.657Z,14.91
2023-08-06T21:14:28.146Z,15.03
2023-08-06T21:16:58.732Z,15.21
2023-08-06T21:19:29.284Z,15.28
2023-08-06T21:21:59.868Z,15.34
2023-08-06T21:24:30.430Z,15.44
2023-08-06T21:27:01.760Z,15.54
2023-08-06T21:29:34.723Z,15.61
2023-08-06T21:32:05.171Z,15.69
2023-08-06T21:34:35.758Z,15.80
2023-08-06T21:37:06.307Z,15.90
2023-08-06T21:39:37.072Z,16.00
2023-08-06T21:42:07.977Z,16.03
2023-08-06T21:44:40.057Z,15.96
2023-08-06T21:47:10.650Z,15.93
2023-08-06T21:49:41.135Z,15.98
2023-08-06T21:52:12.133Z,15.90
2023-08-06T21:54:42.582Z,15.94
2023-08-06T21:57:13.131Z,16.12
2023-08-06T21:59:45.360Z,16.33
2023-08-06T22:02:15.924Z,16.48
2023-08-06T22:04:46.426Z,16.69
2023-08-06T22:07:16.991Z,16.79
2023-08-06T22:09:47.716Z,16.90
2023-08-06T22:12:18.222Z,17.06
2023-08-06T22:14:50.474Z,17.28
2023-08-06T22:17:21.081Z,17.34
2023-08-06T22:19:51.605Z,17.37
2023-08-06T22:22:22.655Z,17.56
2023-08-06T22:24:53.178Z,17.73
2023-08-06T22:27:24.045Z,17.98
2023-08-06T22:29:56.222Z,18.08
2023-08-06T22:32:26.778Z,18.10
2023-08-06T22:34:57.264Z,18.11
2023-08-06T22:37:28.299Z,18.14
2023-08-06T22:40:01.015Z,18.08
2023-08-06T22:42:31.576Z,18.09
2023-08-06T22:45:04.039Z,18.21
2023-08-06T22:47:34.615Z,18.30
2023-08-06T22:50:05.512Z,18.36
2023-08-06T22:52:36.059Z,18.42
2023-08-06T22:55:18.962Z,18.45
2023-08-06T22:57:54.446Z,18.55
2023-08-06T23:00:26.642Z,18.65
2023-08-06T23:03:08.678Z,18.81
2023-08-06T23:05:41.919Z,18.95
2023-08-06T23:08:12.574Z,19.13
2023-08-06T23:10:43.147Z,19.33
2023-08-06T23:13:13.729Z,19.51
2023-08-06T23:15:46.008Z,19.58
2023-08-06T23:18:16.584Z,19.56
2023-08-06T23:20:48.140Z,19.47
2023-08-06T23:23:18.713Z,19.52
2023-08-06T23:25:49.289Z,19.56
2023-08-06T23:28:19.911Z,19.59
2023-08-06T23:30:54.003Z,19.69
2023-08-06T23:33:24.482Z,19.86
2023-08-06T23:35:54.960Z,19.99
2023-08-06T23:38:25.513Z,20.03
2023-08-06T23:40:56.099Z,20.08
2023-08-06T23:43:26.657Z,20.15
2023-08-06T23:46:00.878Z,20.14
2023-08-06T23:48:31.671Z,20.12
2023-08-06T23:51:02.177Z,20.15
2023-08-06T23:53:32.723Z,20.23
2023-08-06T23:56:03.191Z,20.45
2023-08-06T23:58:33.726Z,20.45
